Pagina principală
METAR-TAF:

METAR-TAF

Aeroporturi :

Coonabarabran, Australia

Latitudine: 31-20S, longitudine: 149-16E, elevație: 645 m

Observații meteo curente

Raportul a fost făcut în urmă cu 1 oră și 24 de minute, la 09:00 UTC
Vânt 9 kt de la Sud-est
Temperatură 12°C
Umiditate 88%
Presiune 1022 hPa
Vizibilitate de 10 km sau mai mult
Nori fragmentați la o înălțime de 4300 picior

METAR: YCBB 260900Z AUTO 13009KT 9999 // BKN043 12/10 Q1022

Ora: 20:24 (10:24 UTC)


TAF: lipsă

Observații și prognoze meteo pentru peste 4.000 de aeroporturi (rapoarte METAR și TAF).

Stațiile disponibile sunt reprezentate pe hartă prin puncte galbene și roșii.

Țineți indicatorul mouse-ului pe punctul dorit pentru a vedea denumirea stației.

Apoi, faceți clic pentru a vedea observațiile și prognozele meteorologice.

Pentru a schimba harta: Pentru mărire, faceți clic pe butoanele verzi cu cruce neagră; pentru micșorare, pe butonul verde cu o liniuță; pentru hărți învecinate, pe săgețile verzi.


METAR-TAF: